createdAt,value
2022-07-30T00:25:43.665Z,17.49
2022-07-30T00:55:46.829Z,17.11
2022-07-30T01:25:49.784Z,16.58
2022-07-30T01:55:53.544Z,16.40
2022-07-30T02:25:56.873Z,16.23
2022-07-30T02:56:00.396Z,16.08
2022-07-30T03:26:03.795Z,16.05
2022-07-30T03:56:07.180Z,16.25
2022-07-30T04:26:10.210Z,16.41
2022-07-30T04:56:13.299Z,16.72
2022-07-30T05:26:16.748Z,17.22
2022-07-30T05:56:20.231Z,17.77
2022-07-30T06:26:23.253Z,18.42
2022-07-30T06:56:26.454Z,19.17
2022-07-30T07:26:30.201Z,19.85
2022-07-30T07:56:33.468Z,20.53
2022-07-30T08:26:39.676Z,21.01
2022-07-30T08:56:43.011Z,21.54
2022-07-30T09:26:46.439Z,21.84
2022-07-30T09:56:53.665Z,22.11
2022-07-30T10:26:57.493Z,22.66
2022-07-30T10:57:01.313Z,22.62
2022-07-30T11:27:06.208Z,22.66
2022-07-30T11:57:11.930Z,22.37
2022-07-30T12:27:15.302Z,22.44
2022-07-30T12:57:18.132Z,21.42
2022-07-30T13:27:21.478Z,22.87
2022-07-30T13:57:24.460Z,24.97
2022-07-30T14:27:27.880Z,24.02
2022-07-30T14:57:30.685Z,25.09
2022-07-30T15:27:34.463Z,21.95
2022-07-30T15:57:37.879Z,24.92
2022-07-30T16:27:40.756Z,23.25
2022-07-30T16:57:43.824Z,24.98
2022-07-30T17:27:47.134Z,22.73
2022-07-30T17:57:50.315Z,24.56
2022-07-30T18:27:53.767Z,25.35
2022-07-30T18:57:56.528Z,24.54
2022-07-30T19:28:00.292Z,22.18
2022-07-30T19:58:03.102Z,23.11
2022-07-30T20:28:08.203Z,24.34
2022-07-30T20:58:16.551Z,24.38
2022-07-30T21:28:27.746Z,23.46
2022-07-30T21:58:31.780Z,21.85
2022-07-30T22:28:35.164Z,22.23
2022-07-30T22:58:40.637Z,23.23
2022-07-30T23:28:46.617Z,24.07
2022-07-30T23:58:49.359Z,23.79
